sensor_id;sensor_type;location;lat;lon;timestamp;P1;durP1;ratioP1;P2;durP2;ratioP2
62984;SDS011;49080;50.062;19.892;2023-10-09T00:00:35;12.70;;;7.80;;
62984;SDS011;49080;50.062;19.892;2023-10-09T00:03:38;11.80;;;8.10;;
62984;SDS011;49080;50.062;19.892;2023-10-09T00:06:10;11.80;;;7.90;;
62984;SDS011;49080;50.062;19.892;2023-10-09T00:08:41;11.50;;;7.70;;
62984;SDS011;49080;50.062;19.892;2023-10-09T00:11:12;11.80;;;7.60;;
62984;SDS011;49080;50.062;19.892;2023-10-09T00:13:45;13.70;;;8.80;;
62984;SDS011;49080;50.062;19.892;2023-10-09T00:16:18;13.90;;;8.00;;
62984;SDS011;49080;50.062;19.892;2023-10-09T00:19:02;11.80;;;7.70;;
62984;SDS011;49080;50.062;19.892;2023-10-09T00:21:42;12.70;;;8.00;;
62984;SDS011;49080;50.062;19.892;2023-10-09T00:24:12;15.20;;;8.60;;
62984;SDS011;49080;50.062;19.892;2023-10-09T00:26:51;14.20;;;8.80;;
62984;SDS011;49080;50.062;19.892;2023-10-09T00:29:23;14.30;;;8.60;;
62984;SDS011;49080;50.062;19.892;2023-10-09T00:31:56;15.20;;;9.60;;
62984;SDS011;49080;50.062;19.892;2023-10-09T00:34:33;13.90;;;8.80;;
62984;SDS011;49080;50.062;19.892;2023-10-09T00:37:08;14.30;;;10.00;;
62984;SDS011;49080;50.062;19.892;2023-10-09T00:39:40;14.40;;;9.40;;
62984;SDS011;49080;50.062;19.892;2023-10-09T00:42:11;14.40;;;9.40;;
62984;SDS011;49080;50.062;19.892;2023-10-09T00:44:41;15.70;;;9.30;;
62984;SDS011;49080;50.062;19.892;2023-10-09T00:47:11;13.90;;;8.70;;
62984;SDS011;49080;50.062;19.892;2023-10-09T00:49:51;14.70;;;9.70;;
62984;SDS011;49080;50.062;19.892;2023-10-09T00:52:28;15.50;;;9.40;;
62984;SDS011;49080;50.062;19.892;2023-10-09T00:55:05;16.50;;;10.80;;
62984;SDS011;49080;50.062;19.892;2023-10-09T00:57:42;14.20;;;10.30;;
62984;SDS011;49080;50.062;19.892;2023-10-09T01:00:18;16.00;;;10.80;;
62984;SDS011;49080;50.062;19.892;2023-10-09T01:03:03;14.20;;;10.00;;
62984;SDS011;49080;50.062;19.892;2023-10-09T01:05:54;14.80;;;10.10;;
62984;SDS011;49080;50.062;19.892;2023-10-09T01:08:27;15.80;;;11.30;;
62984;SDS011;49080;50.062;19.892;2023-10-09T01:11:11;14.60;;;10.50;;
62984;SDS011;49080;50.062;19.892;2023-10-09T01:13:47;15.00;;;10.50;;
62984;SDS011;49080;50.062;19.892;2023-10-09T01:16:22;15.80;;;10.40;;
62984;SDS011;49080;50.062;19.892;2023-10-09T01:18:52;14.30;;;10.00;;
62984;SDS011;49080;50.062;19.892;2023-10-09T01:21:25;15.00;;;10.60;;
62984;SDS011;49080;50.062;19.892;2023-10-09T01:23:55;14.30;;;10.80;;
62984;SDS011;49080;50.062;19.892;2023-10-09T01:26:37;14.90;;;11.10;;
62984;SDS011;49080;50.062;19.892;2023-10-09T01:29:16;15.30;;;10.60;;
62984;SDS011;49080;50.062;19.892;2023-10-09T01:31:53;14.50;;;10.80;;
62984;SDS011;49080;50.062;19.892;2023-10-09T01:34:27;16.00;;;10.60;;
62984;SDS011;49080;50.062;19.892;2023-10-09T01:37:14;15.10;;;11.20;;
62984;SDS011;49080;50.062;19.892;2023-10-09T01:39:50;14.90;;;10.90;;
62984;SDS011;49080;50.062;19.892;2023-10-09T01:42:20;16.70;;;11.20;;
62984;SDS011;49080;50.062;19.892;2023-10-09T01:45:00;14.90;;;10.40;;
62984;SDS011;49080;50.062;19.892;2023-10-09T01:47:38;17.20;;;11.20;;
62984;SDS011;49080;50.062;19.892;2023-10-09T01:50:07;17.10;;;11.70;;
62984;SDS011;49080;50.062;19.892;2023-10-09T01:52:39;16.10;;;12.50;;
62984;SDS011;49080;50.062;19.892;2023-10-09T01:55:10;17.80;;;12.10;;
62984;SDS011;49080;50.062;19.892;2023-10-09T01:57:41;17.50;;;11.50;;
62984;SDS011;49080;50.062;19.892;2023-10-09T02:00:12;14.30;;;11.00;;
62984;SDS011;49080;50.062;19.892;2023-10-09T02:02:50;17.60;;;11.50;;
62984;SDS011;49080;50.062;19.892;2023-10-09T02:05:19;17.40;;;10.90;;
62984;SDS011;49080;50.062;19.892;2023-10-09T02:07:53;15.10;;;10.20;;
62984;SDS011;49080;50.062;19.892;2023-10-09T02:10:23;16.10;;;10.70;;
62984;SDS011;49080;50.062;19.892;2023-10-09T02:13:00;17.20;;;11.30;;
62984;SDS011;49080;50.062;19.892;2023-10-09T02:15:35;15.50;;;11.40;;
62984;SDS011;49080;50.062;19.892;2023-10-09T02:18:20;15.80;;;10.80;;
62984;SDS011;49080;50.062;19.892;2023-10-09T02:21:07;14.90;;;10.90;;
62984;SDS011;49080;50.062;19.892;2023-10-09T02:23:43;18.30;;;11.70;;
62984;SDS011;49080;50.062;19.892;2023-10-09T02:26:18;17.30;;;11.60;;
62984;SDS011;49080;50.062;19.892;2023-10-09T02:28:57;17.80;;;12.30;;
62984;SDS011;49080;50.062;19.892;2023-10-09T02:31:28;15.90;;;11.70;;
62984;SDS011;49080;50.062;19.892;2023-10-09T02:34:04;15.70;;;11.80;;
62984;SDS011;49080;50.062;19.892;2023-10-09T02:36:33;14.90;;;11.10;;
62984;SDS011;49080;50.062;19.892;2023-10-09T02:39:06;16.00;;;11.80;;
62984;SDS011;49080;50.062;19.892;2023-10-09T02:41:52;14.50;;;10.80;;
62984;SDS011;49080;50.062;19.892;2023-10-09T02:44:23;15.30;;;11.30;;
62984;SDS011;49080;50.062;19.892;2023-10-09T02:46:53;16.00;;;11.40;;
62984;SDS011;49080;50.062;19.892;2023-10-09T02:49:25;15.30;;;11.10;;
62984;SDS011;49080;50.062;19.892;2023-10-09T02:54:24;16.30;;;12.10;;
62984;SDS011;49080;50.062;19.892;2023-10-09T02:57:03;14.80;;;11.50;;
62984;SDS011;49080;50.062;19.892;2023-10-09T02:59:36;17.70;;;11.80;;
62984;SDS011;49080;50.062;19.892;2023-10-09T03:02:09;16.40;;;11.70;;
62984;SDS011;49080;50.062;19.892;2023-10-09T03:04:38;15.80;;;11.50;;
62984;SDS011;49080;50.062;19.892;2023-10-09T03:07:09;16.30;;;11.60;;
62984;SDS011;49080;50.062;19.892;2023-10-09T03:09:41;16.10;;;12.30;;
62984;SDS011;49080;50.062;19.892;2023-10-09T03:12:10;15.80;;;11.40;;
62984;SDS011;49080;50.062;19.892;2023-10-09T03:17:10;17.30;;;12.20;;
62984;SDS011;49080;50.062;19.892;2023-10-09T03:19:40;16.50;;;12.10;;
62984;SDS011;49080;50.062;19.892;2023-10-09T03:22:11;15.70;;;11.90;;
62984;SDS011;49080;50.062;19.892;2023-10-09T03:24:40;14.40;;;11.00;;
62984;SDS011;49080;50.062;19.892;2023-10-09T03:27:17;16.40;;;11.50;;
62984;SDS011;49080;50.062;19.892;2023-10-09T03:29:46;15.70;;;11.60;;
62984;SDS011;49080;50.062;19.892;2023-10-09T03:32:21;15.60;;;11.40;;
62984;SDS011;49080;50.062;19.892;2023-10-09T03:34:51;16.30;;;11.60;;
62984;SDS011;49080;50.062;19.892;2023-10-09T03:37:20;15.60;;;11.50;;
62984;SDS011;49080;50.062;19.892;2023-10-09T03:40:01;16.30;;;11.90;;
62984;SDS011;49080;50.062;19.892;2023-10-09T03:42:34;17.70;;;11.90;;
62984;SDS011;49080;50.062;19.892;2023-10-09T03:45:04;15.40;;;11.10;;
62984;SDS011;49080;50.062;19.892;2023-10-09T03:47:41;15.30;;;10.60;;
62984;SDS011;49080;50.062;19.892;2023-10-09T03:50:16;16.40;;;11.60;;
62984;SDS011;49080;50.062;19.892;2023-10-09T03:52:54;14.80;;;11.00;;
62984;SDS011;49080;50.062;19.892;2023-10-09T03:55:23;15.60;;;10.90;;
62984;SDS011;49080;50.062;19.892;2023-10-09T03:57:56;15.90;;;10.80;;
62984;SDS011;49080;50.062;19.892;2023-10-09T04:00:28;15.80;;;11.00;;
62984;SDS011;49080;50.062;19.892;2023-10-09T04:02:58;14.80;;;10.80;;
62984;SDS011;49080;50.062;19.892;2023-10-09T04:05:28;14.80;;;10.70;;
62984;SDS011;49080;50.062;19.892;2023-10-09T04:07:57;14.40;;;10.80;;
62984;SDS011;49080;50.062;19.892;2023-10-09T04:10:29;14.20;;;10.80;;
62984;SDS011;49080;50.062;19.892;2023-10-09T04:13:22;15.70;;;10.40;;
62984;SDS011;49080;50.062;19.892;2023-10-09T04:15:54;15.70;;;10.30;;
62984;SDS011;49080;50.062;19.892;2023-10-09T04:18:23;15.20;;;10.10;;
62984;SDS011;49080;50.062;19.892;2023-10-09T04:21:00;14.70;;;10.60;;
62984;SDS011;49080;50.062;19.892;2023-10-09T04:23:47;16.30;;;10.30;;
62984;SDS011;49080;50.062;19.892;2023-10-09T04:26:30;15.70;;;10.00;;
62984;SDS011;49080;50.062;19.892;2023-10-09T04:29:02;14.90;;;9.00;;
62984;SDS011;49080;50.062;19.892;2023-10-09T04:31:32;14.90;;;10.00;;
62984;SDS011;49080;50.062;19.892;2023-10-09T04:34:05;13.30;;;9.10;;
62984;SDS011;49080;50.062;19.892;2023-10-09T04:36:48;12.70;;;9.40;;
62984;SDS011;49080;50.062;19.892;2023-10-09T04:39:19;13.70;;;9.70;;
62984;SDS011;49080;50.062;19.892;2023-10-09T04:42:01;14.00;;;9.80;;
62984;SDS011;49080;50.062;19.892;2023-10-09T04:44:45;13.10;;;9.10;;
62984;SDS011;49080;50.062;19.892;2023-10-09T04:47:29;13.10;;;8.90;;
62984;SDS011;49080;50.062;19.892;2023-10-09T04:50:05;15.50;;;10.60;;
62984;SDS011;49080;50.062;19.892;2023-10-09T04:52:37;15.70;;;10.10;;
62984;SDS011;49080;50.062;19.892;2023-10-09T04:55:21;12.90;;;8.10;;
62984;SDS011;49080;50.062;19.892;2023-10-09T04:57:53;14.20;;;9.10;;
62984;SDS011;49080;50.062;19.892;2023-10-09T05:00:40;12.70;;;8.30;;
62984;SDS011;49080;50.062;19.892;2023-10-09T05:03:29;14.30;;;9.60;;
62984;SDS011;49080;50.062;19.892;2023-10-09T05:06:11;13.00;;;8.70;;
62984;SDS011;49080;50.062;19.892;2023-10-09T05:09:00;14.10;;;8.90;;
62984;SDS011;49080;50.062;19.892;2023-10-09T05:11:42;12.50;;;8.60;;
62984;SDS011;49080;50.062;19.892;2023-10-09T05:14:37;13.80;;;8.70;;
62984;SDS011;49080;50.062;19.892;2023-10-09T05:17:15;12.50;;;7.90;;
62984;SDS011;49080;50.062;19.892;2023-10-09T05:19:44;14.00;;;9.20;;
62984;SDS011;49080;50.062;19.892;2023-10-09T05:22:44;13.50;;;9.40;;
62984;SDS011;49080;50.062;19.892;2023-10-09T05:25:25;13.20;;;8.60;;
62984;SDS011;49080;50.062;19.892;2023-10-09T05:28:08;14.00;;;9.30;;
62984;SDS011;49080;50.062;19.892;2023-10-09T05:30:51;13.30;;;9.00;;
62984;SDS011;49080;50.062;19.892;2023-10-09T05:33:30;13.10;;;8.70;;
62984;SDS011;49080;50.062;19.892;2023-10-09T05:36:02;13.80;;;8.90;;
62984;SDS011;49080;50.062;19.892;2023-10-09T05:38:45;13.80;;;9.00;;
62984;SDS011;49080;50.062;19.892;2023-10-09T05:41:26;14.30;;;8.80;;
62984;SDS011;49080;50.062;19.892;2023-10-09T05:44:15;12.70;;;8.50;;
62984;SDS011;49080;50.062;19.892;2023-10-09T05:46:58;13.30;;;8.60;;
62984;SDS011;49080;50.062;19.892;2023-10-09T05:49:47;14.70;;;8.60;;
62984;SDS011;49080;50.062;19.892;2023-10-09T05:52:22;14.00;;;8.30;;
62984;SDS011;49080;50.062;19.892;2023-10-09T05:55:11;11.30;;;8.10;;
62984;SDS011;49080;50.062;19.892;2023-10-09T05:58:09;12.20;;;8.40;;
62984;SDS011;49080;50.062;19.892;2023-10-09T06:00:57;12.40;;;8.10;;
62984;SDS011;49080;50.062;19.892;2023-10-09T06:03:40;13.00;;;8.00;;
62984;SDS011;49080;50.062;19.892;2023-10-09T06:06:22;9.00;;;5.60;;
62984;SDS011;49080;50.062;19.892;2023-10-09T06:09:07;9.00;;;4.80;;
62984;SDS011;49080;50.062;19.892;2023-10-09T06:11:56;9.90;;;4.40;;
62984;SDS011;49080;50.062;19.892;2023-10-09T06:14:45;9.00;;;4.20;;
62984;SDS011;49080;50.062;19.892;2023-10-09T06:17:25;10.60;;;3.30;;
62984;SDS011;49080;50.062;19.892;2023-10-09T06:20:11;8.40;;;4.00;;
62984;SDS011;49080;50.062;19.892;2023-10-09T06:22:54;7.90;;;3.80;;
62984;SDS011;49080;50.062;19.892;2023-10-09T06:25:25;8.00;;;3.50;;
62984;SDS011;49080;50.062;19.892;2023-10-09T06:28:00;9.50;;;4.00;;
62984;SDS011;49080;50.062;19.892;2023-10-09T06:30:30;8.50;;;3.60;;
62984;SDS011;49080;50.062;19.892;2023-10-09T06:33:02;11.70;;;4.40;;
62984;SDS011;49080;50.062;19.892;2023-10-09T06:35:47;9.60;;;5.50;;
62984;SDS011;49080;50.062;19.892;2023-10-09T06:38:36;12.30;;;7.40;;
62984;SDS011;49080;50.062;19.892;2023-10-09T06:41:20;10.70;;;6.90;;
62984;SDS011;49080;50.062;19.892;2023-10-09T06:44:05;11.40;;;7.50;;
62984;SDS011;49080;50.062;19.892;2023-10-09T06:46:35;13.20;;;7.40;;
62984;SDS011;49080;50.062;19.892;2023-10-09T06:49:13;11.80;;;7.90;;
62984;SDS011;49080;50.062;19.892;2023-10-09T06:51:59;12.80;;;7.70;;
62984;SDS011;49080;50.062;19.892;2023-10-09T06:54:42;12.00;;;7.90;;
62984;SDS011;49080;50.062;19.892;2023-10-09T06:57:17;13.00;;;8.50;;
62984;SDS011;49080;50.062;19.892;2023-10-09T07:00:11;11.40;;;7.40;;
62984;SDS011;49080;50.062;19.892;2023-10-09T07:02:54;11.20;;;6.90;;
62984;SDS011;49080;50.062;19.892;2023-10-09T07:05:25;12.50;;;8.40;;
62984;SDS011;49080;50.062;19.892;2023-10-09T07:08:14;13.60;;;8.00;;
62984;SDS011;49080;50.062;19.892;2023-10-09T07:11:03;12.30;;;8.00;;
62984;SDS011;49080;50.062;19.892;2023-10-09T07:13:46;12.00;;;8.30;;
62984;SDS011;49080;50.062;19.892;2023-10-09T07:16:21;12.10;;;7.60;;
62984;SDS011;49080;50.062;19.892;2023-10-09T07:18:56;11.90;;;7.50;;
62984;SDS011;49080;50.062;19.892;2023-10-09T07:21:37;11.60;;;6.40;;
62984;SDS011;49080;50.062;19.892;2023-10-09T07:24:07;10.10;;;5.60;;
62984;SDS011;49080;50.062;19.892;2023-10-09T07:26:44;11.00;;;4.90;;
62984;SDS011;49080;50.062;19.892;2023-10-09T07:29:20;9.10;;;5.00;;
62984;SDS011;49080;50.062;19.892;2023-10-09T07:31:51;9.50;;;5.30;;
62984;SDS011;49080;50.062;19.892;2023-10-09T07:34:25;11.20;;;6.10;;
62984;SDS011;49080;50.062;19.892;2023-10-09T07:37:21;10.80;;;5.30;;
62984;SDS011;49080;50.062;19.892;2023-10-09T07:39:50;8.60;;;4.40;;
62984;SDS011;49080;50.062;19.892;2023-10-09T07:42:25;8.20;;;4.80;;
62984;SDS011;49080;50.062;19.892;2023-10-09T07:45:11;8.30;;;4.30;;
62984;SDS011;49080;50.062;19.892;2023-10-09T07:48:01;8.40;;;4.20;;
62984;SDS011;49080;50.062;19.892;2023-10-09T07:50:35;8.70;;;4.70;;
62984;SDS011;49080;50.062;19.892;2023-10-09T07:53:16;8.20;;;4.50;;
62984;SDS011;49080;50.062;19.892;2023-10-09T07:55:47;9.70;;;4.80;;
62984;SDS011;49080;50.062;19.892;2023-10-09T07:58:22;10.10;;;4.90;;
62984;SDS011;49080;50.062;19.892;2023-10-09T08:00:57;11.80;;;5.80;;
62984;SDS011;49080;50.062;19.892;2023-10-09T08:03:36;9.00;;;4.50;;
62984;SDS011;49080;50.062;19.892;2023-10-09T08:06:05;8.30;;;4.60;;
62984;SDS011;49080;50.062;19.892;2023-10-09T08:09:06;9.30;;;4.60;;
62984;SDS011;49080;50.062;19.892;2023-10-09T08:12:07;7.10;;;3.60;;
62984;SDS011;49080;50.062;19.892;2023-10-09T08:15:03;6.90;;;3.00;;
62984;SDS011;49080;50.062;19.892;2023-10-09T08:17:56;7.20;;;3.10;;
62984;SDS011;49080;50.062;19.892;2023-10-09T08:20:31;7.60;;;2.80;;
62984;SDS011;49080;50.062;19.892;2023-10-09T08:23:18;6.50;;;2.90;;
62984;SDS011;49080;50.062;19.892;2023-10-09T08:26:00;6.40;;;2.60;;
62984;SDS011;49080;50.062;19.892;2023-10-09T08:28:44;4.60;;;2.10;;
62984;SDS011;49080;50.062;19.892;2023-10-09T08:31:17;4.90;;;2.00;;
62984;SDS011;49080;50.062;19.892;2023-10-09T08:34:02;5.50;;;2.00;;
62984;SDS011;49080;50.062;19.892;2023-10-09T08:36:34;4.20;;;1.90;;
62984;SDS011;49080;50.062;19.892;2023-10-09T08:39:05;4.10;;;1.70;;
62984;SDS011;49080;50.062;19.892;2023-10-09T08:41:44;5.10;;;1.70;;
62984;SDS011;49080;50.062;19.892;2023-10-09T08:44:13;4.90;;;1.70;;
62984;SDS011;49080;50.062;19.892;2023-10-09T08:46:42;3.50;;;1.50;;
62984;SDS011;49080;50.062;19.892;2023-10-09T08:49:12;4.80;;;1.80;;
62984;SDS011;49080;50.062;19.892;2023-10-09T08:51:42;3.40;;;1.50;;
62984;SDS011;49080;50.062;19.892;2023-10-09T08:54:10;3.50;;;1.40;;
62984;SDS011;49080;50.062;19.892;2023-10-09T08:56:42;4.40;;;1.90;;
62984;SDS011;49080;50.062;19.892;2023-10-09T08:59:18;3.50;;;1.30;;
62984;SDS011;49080;50.062;19.892;2023-10-09T09:01:48;3.90;;;1.50;;
62984;SDS011;49080;50.062;19.892;2023-10-09T09:04:38;4.10;;;1.30;;
62984;SDS011;49080;50.062;19.892;2023-10-09T09:07:27;4.90;;;1.70;;
62984;SDS011;49080;50.062;19.892;2023-10-09T09:09:59;4.20;;;1.30;;
62984;SDS011;49080;50.062;19.892;2023-10-09T09:12:32;4.20;;;1.60;;
62984;SDS011;49080;50.062;19.892;2023-10-09T09:15:11;3.50;;;1.50;;
62984;SDS011;49080;50.062;19.892;2023-10-09T09:17:46;4.10;;;1.40;;
62984;SDS011;49080;50.062;19.892;2023-10-09T09:20:26;3.40;;;1.40;;
62984;SDS011;49080;50.062;19.892;2023-10-09T09:22:59;3.70;;;1.20;;
62984;SDS011;49080;50.062;19.892;2023-10-09T09:25:42;3.40;;;1.10;;
62984;SDS011;49080;50.062;19.892;2023-10-09T09:28:16;3.40;;;1.40;;
62984;SDS011;49080;50.062;19.892;2023-10-09T09:30:49;4.60;;;1.30;;
62984;SDS011;49080;50.062;19.892;2023-10-09T09:36:07;3.30;;;1.40;;
62984;SDS011;49080;50.062;19.892;2023-10-09T09:38:39;4.20;;;1.40;;
62984;SDS011;49080;50.062;19.892;2023-10-09T09:41:18;2.80;;;1.10;;
62984;SDS011;49080;50.062;19.892;2023-10-09T09:43:58;3.70;;;1.20;;
62984;SDS011;49080;50.062;19.892;2023-10-09T09:49:12;2.10;;;1.00;;
62984;SDS011;49080;50.062;19.892;2023-10-09T09:51:44;2.80;;;1.30;;
62984;SDS011;49080;50.062;19.892;2023-10-09T09:54:14;4.10;;;1.70;;
62984;SDS011;49080;50.062;19.892;2023-10-09T09:56:44;4.80;;;1.70;;
62984;SDS011;49080;50.062;19.892;2023-10-09T09:59:18;7.30;;;2.20;;
62984;SDS011;49080;50.062;19.892;2023-10-09T10:01:49;5.10;;;2.00;;
62984;SDS011;49080;50.062;19.892;2023-10-09T10:04:26;4.60;;;1.70;;
62984;SDS011;49080;50.062;19.892;2023-10-09T10:06:57;4.80;;;1.80;;
62984;SDS011;49080;50.062;19.892;2023-10-09T10:09:37;6.40;;;1.80;;
62984;SDS011;49080;50.062;19.892;2023-10-09T10:12:08;4.50;;;1.70;;
62984;SDS011;49080;50.062;19.892;2023-10-09T10:14:52;3.80;;;1.60;;
62984;SDS011;49080;50.062;19.892;2023-10-09T10:17:25;4.10;;;1.70;;
62984;SDS011;49080;50.062;19.892;2023-10-09T10:20:02;4.80;;;1.80;;
62984;SDS011;49080;50.062;19.892;2023-10-09T10:23:16;6.30;;;2.70;;
62984;SDS011;49080;50.062;19.892;2023-10-09T10:25:47;5.20;;;2.10;;
62984;SDS011;49080;50.062;19.892;2023-10-09T10:28:18;5.90;;;2.10;;
62984;SDS011;49080;50.062;19.892;2023-10-09T10:31:10;5.60;;;2.20;;
62984;SDS011;49080;50.062;19.892;2023-10-09T10:36:22;4.90;;;1.80;;
62984;SDS011;49080;50.062;19.892;2023-10-09T10:38:59;4.60;;;1.80;;
62984;SDS011;49080;50.062;19.892;2023-10-09T10:41:37;5.40;;;2.20;;
62984;SDS011;49080;50.062;19.892;2023-10-09T10:44:52;6.20;;;2.20;;
62984;SDS011;49080;50.062;19.892;2023-10-09T10:47:13;5.60;;;2.10;;
62984;SDS011;49080;50.062;19.892;2023-10-09T10:49:53;5.00;;;2.00;;
62984;SDS011;49080;50.062;19.892;2023-10-09T10:52:27;4.90;;;1.80;;
62984;SDS011;49080;50.062;19.892;2023-10-09T10:55:11;5.70;;;2.20;;
62984;SDS011;49080;50.062;19.892;2023-10-09T10:58:17;5.70;;;2.00;;
62984;SDS011;49080;50.062;19.892;2023-10-09T11:01:02;6.40;;;2.40;;
62984;SDS011;49080;50.062;19.892;2023-10-09T11:03:41;5.10;;;2.00;;
62984;SDS011;49080;50.062;19.892;2023-10-09T11:06:26;4.70;;;2.10;;
62984;SDS011;49080;50.062;19.892;2023-10-09T11:09:05;4.20;;;1.90;;
62984;SDS011;49080;50.062;19.892;2023-10-09T11:11:49;4.90;;;1.50;;
62984;SDS011;49080;50.062;19.892;2023-10-09T11:14:23;4.80;;;1.60;;
62984;SDS011;49080;50.062;19.892;2023-10-09T11:16:52;5.20;;;1.80;;
62984;SDS011;49080;50.062;19.892;2023-10-09T11:19:26;4.80;;;1.90;;
62984;SDS011;49080;50.062;19.892;2023-10-09T11:21:59;5.70;;;2.30;;
62984;SDS011;49080;50.062;19.892;2023-10-09T11:24:43;6.40;;;2.20;;
62984;SDS011;49080;50.062;19.892;2023-10-09T11:27:12;5.30;;;1.90;;
62984;SDS011;49080;50.062;19.892;2023-10-09T11:29:49;4.70;;;2.10;;
62984;SDS011;49080;50.062;19.892;2023-10-09T11:32:22;4.30;;;1.60;;
62984;SDS011;49080;50.062;19.892;2023-10-09T11:35:14;4.80;;;1.90;;
62984;SDS011;49080;50.062;19.892;2023-10-09T11:37:54;4.30;;;1.80;;
62984;SDS011;49080;50.062;19.892;2023-10-09T11:40:31;5.10;;;1.90;;
62984;SDS011;49080;50.062;19.892;2023-10-09T11:43:17;5.30;;;2.00;;
62984;SDS011;49080;50.062;19.892;2023-10-09T11:45:53;4.90;;;1.90;;
62984;SDS011;49080;50.062;19.892;2023-10-09T11:48:26;5.90;;;2.40;;
62984;SDS011;49080;50.062;19.892;2023-10-09T11:51:01;4.50;;;1.90;;
62984;SDS011;49080;50.062;19.892;2023-10-09T11:53:44;4.80;;;2.20;;
62984;SDS011;49080;50.062;19.892;2023-10-09T11:56:16;5.40;;;2.10;;
62984;SDS011;49080;50.062;19.892;2023-10-09T11:58:48;4.30;;;1.90;;
62984;SDS011;49080;50.062;19.892;2023-10-09T12:01:19;6.20;;;2.40;;
62984;SDS011;49080;50.062;19.892;2023-10-09T12:03:49;6.50;;;2.40;;
62984;SDS011;49080;50.062;19.892;2023-10-09T12:06:20;6.20;;;2.40;;
62984;SDS011;49080;50.062;19.892;2023-10-09T12:08:50;5.20;;;2.20;;
62984;SDS011;49080;50.062;19.892;2023-10-09T12:11:21;6.20;;;2.60;;
62984;SDS011;49080;50.062;19.892;2023-10-09T12:13:57;5.30;;;2.30;;
62984;SDS011;49080;50.062;19.892;2023-10-09T12:16:28;4.90;;;2.20;;
62984;SDS011;49080;50.062;19.892;2023-10-09T12:19:00;5.90;;;2.40;;
62984;SDS011;49080;50.062;19.892;2023-10-09T12:21:30;4.80;;;2.10;;
62984;SDS011;49080;50.062;19.892;2023-10-09T12:23:59;5.80;;;2.40;;
62984;SDS011;49080;50.062;19.892;2023-10-09T12:26:29;4.60;;;2.20;;
62984;SDS011;49080;50.062;19.892;2023-10-09T12:29:03;6.20;;;2.30;;
62984;SDS011;49080;50.062;19.892;2023-10-09T12:31:38;5.70;;;2.40;;
62984;SDS011;49080;50.062;19.892;2023-10-09T12:34:07;4.80;;;2.10;;
62984;SDS011;49080;50.062;19.892;2023-10-09T12:36:36;5.50;;;2.60;;
62984;SDS011;49080;50.062;19.892;2023-10-09T12:39:05;5.10;;;2.20;;
62984;SDS011;49080;50.062;19.892;2023-10-09T12:41:35;5.30;;;2.40;;
62984;SDS011;49080;50.062;19.892;2023-10-09T12:44:09;6.10;;;2.20;;
62984;SDS011;49080;50.062;19.892;2023-10-09T12:46:43;5.80;;;2.20;;
62984;SDS011;49080;50.062;19.892;2023-10-09T12:49:20;5.20;;;2.20;;
62984;SDS011;49080;50.062;19.892;2023-10-09T12:51:53;6.60;;;2.60;;
62984;SDS011;49080;50.062;19.892;2023-10-09T12:54:22;6.60;;;2.50;;
62984;SDS011;49080;50.062;19.892;2023-10-09T12:56:55;5.80;;;2.00;;
62984;SDS011;49080;50.062;19.892;2023-10-09T12:59:25;5.40;;;2.60;;
62984;SDS011;49080;50.062;19.892;2023-10-09T13:01:54;4.60;;;2.10;;
62984;SDS011;49080;50.062;19.892;2023-10-09T13:04:26;5.50;;;2.30;;
62984;SDS011;49080;50.062;19.892;2023-10-09T13:07:00;6.00;;;2.70;;
62984;SDS011;49080;50.062;19.892;2023-10-09T13:09:32;5.90;;;2.70;;
62984;SDS011;49080;50.062;19.892;2023-10-09T13:12:10;4.80;;;2.20;;
62984;SDS011;49080;50.062;19.892;2023-10-09T13:14:46;4.50;;;2.20;;
62984;SDS011;49080;50.062;19.892;2023-10-09T13:17:17;5.20;;;2.30;;
62984;SDS011;49080;50.062;19.892;2023-10-09T13:19:48;4.90;;;2.50;;
62984;SDS011;49080;50.062;19.892;2023-10-09T13:22:17;6.80;;;2.40;;
62984;SDS011;49080;50.062;19.892;2023-10-09T13:24:45;5.70;;;2.40;;
62984;SDS011;49080;50.062;19.892;2023-10-09T13:27:16;5.80;;;2.40;;
62984;SDS011;49080;50.062;19.892;2023-10-09T13:29:49;5.50;;;2.50;;
62984;SDS011;49080;50.062;19.892;2023-10-09T13:32:19;6.30;;;2.90;;
62984;SDS011;49080;50.062;19.892;2023-10-09T13:34:48;5.30;;;2.40;;
62984;SDS011;49080;50.062;19.892;2023-10-09T13:37:17;5.80;;;2.30;;
62984;SDS011;49080;50.062;19.892;2023-10-09T13:39:49;6.40;;;2.60;;
62984;SDS011;49080;50.062;19.892;2023-10-09T13:42:21;5.50;;;2.40;;
62984;SDS011;49080;50.062;19.892;2023-10-09T13:44:53;5.40;;;2.70;;
62984;SDS011;49080;50.062;19.892;2023-10-09T13:47:23;5.30;;;2.30;;
62984;SDS011;49080;50.062;19.892;2023-10-09T13:49:59;4.70;;;2.20;;
62984;SDS011;49080;50.062;19.892;2023-10-09T13:52:28;6.30;;;2.50;;
62984;SDS011;49080;50.062;19.892;2023-10-09T13:54:58;5.20;;;2.40;;
62984;SDS011;49080;50.062;19.892;2023-10-09T13:57:43;5.80;;;2.60;;
62984;SDS011;49080;50.062;19.892;2023-10-09T14:03:00;5.30;;;2.50;;
62984;SDS011;49080;50.062;19.892;2023-10-09T14:05:39;5.50;;;2.60;;
62984;SDS011;49080;50.062;19.892;2023-10-09T14:08:20;5.60;;;2.60;;
62984;SDS011;49080;50.062;19.892;2023-10-09T14:10:50;5.30;;;2.70;;
62984;SDS011;49080;50.062;19.892;2023-10-09T14:13:19;5.80;;;2.90;;
62984;SDS011;49080;50.062;19.892;2023-10-09T14:15:53;6.00;;;2.80;;
62984;SDS011;49080;50.062;19.892;2023-10-09T14:20:52;6.00;;;3.10;;
62984;SDS011;49080;50.062;19.892;2023-10-09T14:23:24;6.60;;;2.80;;
62984;SDS011;49080;50.062;19.892;2023-10-09T14:25:59;6.00;;;2.70;;
62984;SDS011;49080;50.062;19.892;2023-10-09T14:28:30;6.20;;;3.10;;
62984;SDS011;49080;50.062;19.892;2023-10-09T14:30:58;6.50;;;2.60;;
62984;SDS011;49080;50.062;19.892;2023-10-09T14:33:28;6.80;;;3.20;;
62984;SDS011;49080;50.062;19.892;2023-10-09T14:36:04;6.80;;;3.20;;
62984;SDS011;49080;50.062;19.892;2023-10-09T14:38:35;5.00;;;2.50;;
62984;SDS011;49080;50.062;19.892;2023-10-09T14:41:06;5.60;;;2.70;;
62984;SDS011;49080;50.062;19.892;2023-10-09T14:43:39;6.20;;;2.70;;
62984;SDS011;49080;50.062;19.892;2023-10-09T14:46:12;6.40;;;3.20;;
62984;SDS011;49080;50.062;19.892;2023-10-09T14:48:43;7.60;;;2.90;;
62984;SDS011;49080;50.062;19.892;2023-10-09T14:51:14;5.30;;;2.80;;
62984;SDS011;49080;50.062;19.892;2023-10-09T14:53:43;7.30;;;3.40;;
62984;SDS011;49080;50.062;19.892;2023-10-09T14:56:12;6.40;;;3.20;;
62984;SDS011;49080;50.062;19.892;2023-10-09T14:58:44;6.00;;;2.90;;
62984;SDS011;49080;50.062;19.892;2023-10-09T15:04:11;7.50;;;3.50;;
62984;SDS011;49080;50.062;19.892;2023-10-09T15:06:42;6.40;;;3.00;;
62984;SDS011;49080;50.062;19.892;2023-10-09T15:09:12;6.90;;;3.50;;
62984;SDS011;49080;50.062;19.892;2023-10-09T15:11:50;8.20;;;3.30;;
62984;SDS011;49080;50.062;19.892;2023-10-09T15:14:19;6.30;;;3.10;;
62984;SDS011;49080;50.062;19.892;2023-10-09T15:16:49;7.80;;;3.50;;
62984;SDS011;49080;50.062;19.892;2023-10-09T15:19:18;7.10;;;3.20;;
62984;SDS011;49080;50.062;19.892;2023-10-09T15:21:47;6.70;;;3.10;;
62984;SDS011;49080;50.062;19.892;2023-10-09T15:24:16;6.40;;;3.40;;
62984;SDS011;49080;50.062;19.892;2023-10-09T15:26:47;7.60;;;3.50;;
62984;SDS011;49080;50.062;19.892;2023-10-09T15:29:20;6.10;;;3.20;;
62984;SDS011;49080;50.062;19.892;2023-10-09T15:31:51;7.20;;;3.40;;
62984;SDS011;49080;50.062;19.892;2023-10-09T15:34:20;8.10;;;3.60;;
62984;SDS011;49080;50.062;19.892;2023-10-09T15:36:49;7.50;;;3.80;;
62984;SDS011;49080;50.062;19.892;2023-10-09T15:39:18;9.90;;;3.70;;